createdAt,value
2022-12-24T00:01:36.279Z,1.83
2022-12-24T00:04:04.569Z,1.80
2022-12-24T00:06:32.606Z,1.60
2022-12-24T00:09:00.638Z,2.03
2022-12-24T00:11:28.875Z,1.50
2022-12-24T00:13:58.584Z,1.27
2022-12-24T00:16:26.787Z,1.40
2022-12-24T00:18:54.901Z,1.27
2022-12-24T00:21:23.169Z,1.70
2022-12-24T00:23:51.232Z,1.97
2022-12-24T00:26:19.277Z,1.73
2022-12-24T00:28:47.346Z,2.83
2022-12-24T00:31:19.845Z,2.17
2022-12-24T00:33:48.794Z,1.60
2022-12-24T00:36:18.056Z,1.60
2022-12-24T00:38:46.839Z,2.50
2022-12-24T00:41:25.809Z,1.90
2022-12-24T00:43:55.271Z,1.60
2022-12-24T00:46:26.335Z,1.90
2022-12-24T00:48:55.075Z,1.43
2022-12-24T00:51:24.460Z,1.70
2022-12-24T00:53:53.297Z,2.30
2022-12-24T00:56:22.202Z,1.23
2022-12-24T00:58:50.378Z,2.50
2022-12-24T01:01:19.068Z,1.70
2022-12-24T01:03:49.237Z,1.80
2022-12-24T01:06:19.338Z,3.23
2022-12-24T01:08:47.749Z,2.20
2022-12-24T01:11:15.873Z,1.57
2022-12-24T01:13:44.030Z,1.57
2022-12-24T01:16:24.647Z,3.00
2022-12-24T01:18:54.605Z,1.63
2022-12-24T01:21:22.736Z,1.83
2022-12-24T01:23:50.903Z,2.40
2022-12-24T01:26:18.919Z,1.40
2022-12-24T01:28:46.898Z,2.00
2022-12-24T01:31:17.471Z,1.80
2022-12-24T01:33:46.861Z,2.23
2022-12-24T01:36:16.885Z,1.93
2022-12-24T01:38:44.980Z,2.40
2022-12-24T01:41:36.273Z,3.17
2022-12-24T01:44:31.234Z,2.27
2022-12-24T01:47:09.884Z,1.30
2022-12-24T01:49:40.698Z,2.20
2022-12-24T01:52:16.301Z,1.30
2022-12-24T01:54:48.385Z,2.30
2022-12-24T01:57:22.462Z,1.70
2022-12-24T01:59:57.795Z,1.77
2022-12-24T02:02:26.684Z,1.77
2022-12-24T02:04:59.330Z,2.00
2022-12-24T02:07:29.055Z,2.20
2022-12-24T02:10:01.173Z,2.03
2022-12-24T02:12:33.715Z,2.40
2022-12-24T02:15:02.624Z,2.07
2022-12-24T02:17:36.410Z,1.63
2022-12-24T02:20:49.048Z,1.83
2022-12-24T02:23:51.265Z,1.70
2022-12-24T02:26:43.491Z,1.53
2022-12-24T02:29:29.720Z,2.20
2022-12-24T02:32:04.444Z,1.70
2022-12-24T02:34:39.491Z,1.70
2022-12-24T02:37:13.612Z,1.60
2022-12-24T02:39:47.807Z,1.80
2022-12-24T02:42:21.343Z,2.00
2022-12-24T02:44:55.657Z,1.70
2022-12-24T02:47:28.531Z,2.83
2022-12-24T02:49:56.550Z,2.03
2022-12-24T02:52:33.193Z,1.63
2022-12-24T02:55:06.375Z,1.80
2022-12-24T02:57:59.568Z,1.83
2022-12-24T03:00:28.533Z,2.10
2022-12-24T03:03:17.721Z,1.60
2022-12-24T03:05:50.576Z,2.90
2022-12-24T03:08:27.793Z,2.20
2022-12-24T03:11:01.312Z,2.13
2022-12-24T03:13:30.465Z,1.70
2022-12-24T03:15:58.486Z,1.27
2022-12-24T03:18:33.019Z,1.70
2022-12-24T03:21:08.417Z,2.00
2022-12-24T03:23:36.999Z,2.00
2022-12-24T03:26:13.436Z,2.07
2022-12-24T03:28:43.177Z,1.50
2022-12-24T03:31:11.549Z,1.53
2022-12-24T03:33:41.732Z,2.00
2022-12-24T03:36:11.469Z,1.40
2022-12-24T03:38:42.332Z,2.03
2022-12-24T03:41:11.546Z,2.13
2022-12-24T03:43:39.537Z,2.10
2022-12-24T03:46:09.057Z,2.10
2022-12-24T03:48:37.880Z,2.37
2022-12-24T03:51:18.038Z,2.07
2022-12-24T03:53:46.128Z,2.10
2022-12-24T03:56:14.206Z,1.63
2022-12-24T03:58:42.284Z,1.50
2022-12-24T04:01:10.385Z,2.63
2022-12-24T04:03:38.545Z,1.60
2022-12-24T04:06:11.250Z,1.60
2022-12-24T04:08:39.997Z,1.90
2022-12-24T04:11:12.769Z,1.70
2022-12-24T04:13:40.773Z,1.27
2022-12-24T04:16:11.831Z,2.30
2022-12-24T04:18:40.855Z,1.30
2022-12-24T04:21:11.449Z,1.90
2022-12-24T04:23:41.981Z,1.80
2022-12-24T04:26:12.690Z,1.80
2022-12-24T04:28:41.795Z,1.50
2022-12-24T04:31:13.281Z,1.67
2022-12-24T04:33:41.331Z,2.13
2022-12-24T04:36:16.809Z,1.93
2022-12-24T04:38:45.398Z,1.60
2022-12-24T04:41:23.208Z,1.33
2022-12-24T04:43:53.845Z,1.40
2022-12-24T04:46:24.621Z,1.70
2022-12-24T04:48:54.772Z,2.30
2022-12-24T04:51:25.810Z,1.37
2022-12-24T04:53:54.931Z,1.37
2022-12-24T04:56:25.126Z,1.50
2022-12-24T04:58:53.704Z,1.30
2022-12-24T05:01:24.558Z,1.63
2022-12-24T05:03:53.170Z,2.50
2022-12-24T05:06:25.133Z,1.27
2022-12-24T05:08:56.017Z,1.53
2022-12-24T05:11:24.233Z,1.30
2022-12-24T05:13:52.519Z,1.17
2022-12-24T05:16:23.245Z,1.90
2022-12-24T05:18:51.970Z,1.83
2022-12-24T05:21:24.417Z,1.50
2022-12-24T05:24:11.068Z,1.73
2022-12-24T05:26:42.983Z,1.60
2022-12-24T05:29:13.102Z,2.00
2022-12-24T05:31:42.506Z,1.80
2022-12-24T05:34:10.751Z,1.43
2022-12-24T05:36:40.682Z,1.30
2022-12-24T05:39:15.105Z,2.00
2022-12-24T05:41:44.550Z,1.60
2022-12-24T05:44:16.250Z,1.23
2022-12-24T05:46:44.692Z,1.40
2022-12-24T05:49:13.971Z,1.80
2022-12-24T05:51:43.473Z,1.73
2022-12-24T05:54:11.907Z,1.20
2022-12-24T05:56:40.060Z,2.50
2022-12-24T05:59:08.090Z,1.80
2022-12-24T06:01:36.132Z,1.40
2022-12-24T06:04:04.313Z,1.67
2022-12-24T06:06:34.574Z,2.07
2022-12-24T06:09:06.836Z,1.60
2022-12-24T06:11:34.852Z,3.27
2022-12-24T06:14:02.846Z,2.37
2022-12-24T06:16:30.930Z,1.47
2022-12-24T06:18:58.942Z,1.60
2022-12-24T06:21:27.066Z,1.60
2022-12-24T06:23:55.087Z,1.80
2022-12-24T06:26:24.810Z,2.23
2022-12-24T06:28:53.155Z,1.63
2022-12-24T06:31:24.545Z,1.73
2022-12-24T06:33:53.278Z,2.17
2022-12-24T06:36:24.098Z,1.70
2022-12-24T06:38:53.341Z,1.80
2022-12-24T06:41:22.245Z,2.00
2022-12-24T06:43:53.775Z,3.03
2022-12-24T06:46:22.962Z,2.50
2022-12-24T06:48:51.703Z,1.47
2022-12-24T06:51:20.471Z,1.47
2022-12-24T06:53:50.488Z,2.00
2022-12-24T06:56:18.857Z,1.47
2022-12-24T06:58:47.058Z,3.07
2022-12-24T07:01:19.249Z,1.50
2022-12-24T07:03:48.069Z,2.73
2022-12-24T07:06:20.205Z,2.57
2022-12-24T07:08:48.239Z,2.47
2022-12-24T07:11:17.312Z,1.07
2022-12-24T07:13:45.435Z,1.60
2022-12-24T07:16:13.621Z,2.50
2022-12-24T07:18:43.028Z,2.53
2022-12-24T07:21:11.157Z,1.83
2022-12-24T07:23:39.540Z,2.47
2022-12-24T07:26:08.450Z,1.73
2022-12-24T07:28:36.430Z,1.93
2022-12-24T07:31:04.495Z,2.20
2022-12-24T07:33:32.673Z,2.50
2022-12-24T07:36:05.021Z,2.37
2022-12-24T07:38:33.914Z,2.23
2022-12-24T07:41:02.612Z,2.47
2022-12-24T07:43:30.950Z,3.23
2022-12-24T07:45:59.479Z,3.37
2022-12-24T07:48:29.888Z,2.20
2022-12-24T07:50:58.626Z,2.50
2022-12-24T07:53:29.707Z,3.30
2022-12-24T07:55:57.985Z,3.37
2022-12-24T07:58:26.760Z,3.27
2022-12-24T08:01:00.440Z,2.53
2022-12-24T08:03:29.117Z,3.10
2022-12-24T08:05:58.434Z,3.40
2022-12-24T08:08:28.029Z,2.77
2022-12-24T08:11:01.918Z,1.93
2022-12-24T08:13:30.332Z,2.90
2022-12-24T08:15:59.187Z,5.20
2022-12-24T08:18:27.466Z,2.63
2022-12-24T08:20:55.491Z,3.80
2022-12-24T08:23:26.959Z,3.97
2022-12-24T08:25:55.023Z,2.93
2022-12-24T08:28:23.116Z,3.87
2022-12-24T08:30:52.028Z,2.07
2022-12-24T08:33:22.189Z,2.37
2022-12-24T08:35:50.918Z,2.50
2022-12-24T08:38:18.984Z,2.67
2022-12-24T08:40:50.156Z,2.90
2022-12-24T08:43:19.270Z,2.40
2022-12-24T08:45:49.188Z,2.83
2022-12-24T08:48:17.551Z,1.73
2022-12-24T08:50:45.950Z,2.67
2022-12-24T08:53:14.618Z,1.93
2022-12-24T08:55:42.593Z,3.30
2022-12-24T08:58:11.989Z,2.80
2022-12-24T09:00:40.101Z,2.07
2022-12-24T09:03:08.200Z,2.20
2022-12-24T09:05:40.840Z,2.70
2022-12-24T09:08:08.863Z,1.77
2022-12-24T09:10:36.886Z,2.40
2022-12-24T09:13:04.893Z,2.67
2022-12-24T09:15:34.206Z,1.97
2022-12-24T09:18:03.484Z,2.23
2022-12-24T09:20:31.747Z,1.30
2022-12-24T09:22:59.776Z,1.40
2022-12-24T09:25:27.813Z,2.37
2022-12-24T09:27:55.822Z,1.60
2022-12-24T09:30:23.870Z,2.07
2022-12-24T09:32:53.788Z,1.67
2022-12-24T09:35:21.737Z,2.97
2022-12-24T09:38:02.695Z,3.63
2022-12-24T09:40:36.876Z,2.23
2022-12-24T09:43:13.729Z,2.30
2022-12-24T09:45:47.902Z,3.17
2022-12-24T09:48:21.022Z,2.57
2022-12-24T09:50:56.231Z,2.33
2022-12-24T09:53:34.548Z,3.20
2022-12-24T09:56:11.145Z,1.60
2022-12-24T09:58:42.842Z,1.90
2022-12-24T10:01:14.670Z,2.10
2022-12-24T10:03:46.496Z,1.87
2022-12-24T10:06:25.007Z,2.17
2022-12-24T10:09:10.417Z,1.80
2022-12-24T10:11:48.783Z,2.10
2022-12-24T10:14:34.592Z,2.57
2022-12-24T10:17:22.877Z,2.90
2022-12-24T10:20:07.085Z,2.20
2022-12-24T10:22:42.943Z,1.90
2022-12-24T10:25:20.729Z,2.50
2022-12-24T10:27:59.796Z,2.07
2022-12-24T10:30:29.975Z,2.37
2022-12-24T10:32:58.143Z,2.80
2022-12-24T10:35:31.527Z,2.90
2022-12-24T10:37:59.526Z,2.43
2022-12-24T10:40:36.401Z,2.37
2022-12-24T10:43:15.134Z,1.67
2022-12-24T10:45:48.132Z,3.60
2022-12-24T10:48:28.244Z,3.10
2022-12-24T10:51:04.064Z,2.80
2022-12-24T10:53:44.206Z,2.50
2022-12-24T10:56:15.130Z,2.30
2022-12-24T10:58:46.465Z,2.93
2022-12-24T11:01:15.098Z,2.63
2022-12-24T11:03:43.477Z,4.07
2022-12-24T11:06:18.392Z,3.50
2022-12-24T11:08:46.821Z,3.30
2022-12-24T11:11:17.723Z,3.60
2022-12-24T11:13:47.756Z,2.57
2022-12-24T11:16:27.084Z,4.20
2022-12-24T11:18:58.463Z,3.03
2022-12-24T11:21:30.683Z,3.47
2022-12-24T11:24:01.753Z,4.97
2022-12-24T11:26:32.547Z,3.67
2022-12-24T11:29:17.149Z,3.53
2022-12-24T11:31:46.056Z,4.20
2022-12-24T11:34:31.439Z,3.67
2022-12-24T11:37:16.330Z,3.43
2022-12-24T11:39:49.584Z,2.67
2022-12-24T11:42:34.685Z,3.40
2022-12-24T11:45:07.183Z,3.63
2022-12-24T11:47:38.106Z,3.60
2022-12-24T11:50:27.906Z,5.97
2022-12-24T11:53:13.233Z,2.90
2022-12-24T11:55:46.771Z,4.70
2022-12-24T11:58:27.055Z,4.90
2022-12-24T12:01:08.675Z,4.00
2022-12-24T12:03:44.478Z,2.43
2022-12-24T12:06:26.759Z,2.13
2022-12-24T12:09:02.515Z,2.67
2022-12-24T12:11:31.313Z,3.60
2022-12-24T12:14:02.648Z,2.50
2022-12-24T12:17:00.542Z,2.90
2022-12-24T12:19:34.009Z,3.20
2022-12-24T12:22:08.847Z,3.13
2022-12-24T12:24:45.353Z,2.30
2022-12-24T12:27:22.212Z,2.90
2022-12-24T12:29:55.381Z,3.50
2022-12-24T12:32:33.454Z,3.93
2022-12-24T12:35:07.051Z,5.00
2022-12-24T12:37:41.305Z,3.23
2022-12-24T12:40:16.817Z,4.60
2022-12-24T12:42:57.438Z,3.77
2022-12-24T12:45:44.696Z,3.40
2022-12-24T12:48:44.943Z,3.37
2022-12-24T12:51:23.812Z,3.17
2022-12-24T12:54:18.169Z,3.20
2022-12-24T12:56:52.688Z,3.50
2022-12-24T12:59:28.447Z,3.27
2022-12-24T13:02:10.894Z,3.03
2022-12-24T13:05:15.356Z,6.90
2022-12-24T13:08:02.853Z,6.50
2022-12-24T13:10:54.049Z,6.77
2022-12-24T13:13:55.457Z,3.93
2022-12-24T13:17:01.262Z,3.13
2022-12-24T13:19:54.630Z,5.07
2022-12-24T13:22:24.190Z,4.77
2022-12-24T13:24:55.355Z,2.87
2022-12-24T13:27:28.402Z,4.30
2022-12-24T13:30:08.768Z,3.70
2022-12-24T13:32:52.849Z,4.50
2022-12-24T13:35:38.580Z,5.10
2022-12-24T13:38:34.461Z,3.63
2022-12-24T13:41:52.397Z,4.97
2022-12-24T13:44:38.386Z,4.77
2022-12-24T13:47:32.247Z,13.20
2022-12-24T13:50:23.677Z,6.33
2022-12-24T13:52:54.457Z,2.83
2022-12-24T13:55:23.236Z,3.47
2022-12-24T13:57:58.593Z,3.30
2022-12-24T14:00:33.719Z,2.93
2022-12-24T14:03:15.655Z,3.90
2022-12-24T14:05:50.532Z,3.87
2022-12-24T14:08:31.800Z,2.77
2022-12-24T14:11:16.268Z,3.50
2022-12-24T14:14:28.685Z,3.57
2022-12-24T14:17:00.436Z,5.30
2022-12-24T14:19:42.506Z,3.57
2022-12-24T14:22:27.089Z,3.87
2022-12-24T14:24:59.840Z,3.13
2022-12-24T14:27:35.424Z,3.93
2022-12-24T14:30:08.706Z,2.90
2022-12-24T14:32:38.743Z,4.87
2022-12-24T14:35:18.412Z,6.23
2022-12-24T14:37:49.652Z,3.73
2022-12-24T14:40:21.528Z,3.00
2022-12-24T14:42:59.882Z,3.03
2022-12-24T14:45:34.834Z,2.53
2022-12-24T14:48:13.527Z,2.80
2022-12-24T14:51:05.002Z,2.50
2022-12-24T14:53:54.285Z,3.50
2022-12-24T14:56:23.392Z,3.00
2022-12-24T14:58:51.393Z,2.87
2022-12-24T15:01:26.158Z,3.77
2022-12-24T15:04:06.855Z,1.90
2022-12-24T15:06:38.840Z,2.43
2022-12-24T15:09:12.573Z,2.83
2022-12-24T15:11:44.894Z,2.43
2022-12-24T15:14:14.937Z,2.43
2022-12-24T15:16:43.590Z,2.30
2022-12-24T15:19:22.626Z,2.30
2022-12-24T15:21:52.348Z,2.13
2022-12-24T15:24:29.322Z,2.70
2022-12-24T15:26:57.591Z,2.50
2022-12-24T15:29:28.486Z,3.93
2022-12-24T15:31:59.505Z,3.00
2022-12-24T15:34:30.534Z,2.53
2022-12-24T15:37:13.337Z,3.37
2022-12-24T15:39:42.221Z,2.70
2022-12-24T15:42:18.037Z,3.20
2022-12-24T15:44:58.213Z,3.83
2022-12-24T15:47:30.445Z,3.10
2022-12-24T15:49:58.537Z,2.70
2022-12-24T15:52:27.947Z,2.10
2022-12-24T15:54:58.292Z,2.50
2022-12-24T15:57:31.557Z,5.23
2022-12-24T16:00:01.310Z,3.40
2022-12-24T16:02:39.682Z,2.30
2022-12-24T16:05:36.797Z,3.60
2022-12-24T16:08:23.909Z,4.20
2022-12-24T16:10:56.004Z,2.60
2022-12-24T16:13:29.666Z,3.33
2022-12-24T16:16:01.105Z,2.40
2022-12-24T16:18:35.275Z,2.60
2022-12-24T16:21:04.773Z,2.73
2022-12-24T16:23:40.152Z,3.37
2022-12-24T16:26:08.131Z,4.80
2022-12-24T16:28:38.354Z,7.57
2022-12-24T16:31:09.161Z,4.20
2022-12-24T16:33:39.899Z,16.87
2022-12-24T16:36:08.792Z,18.60
2022-12-24T16:38:58.499Z,21.13
2022-12-24T16:41:26.440Z,16.90
2022-12-24T16:43:53.410Z,14.80
2022-12-24T16:46:21.469Z,8.37
2022-12-24T16:48:50.453Z,8.20
2022-12-24T16:51:18.463Z,4.97
2022-12-24T16:53:47.779Z,8.00
2022-12-24T16:56:17.076Z,6.80
2022-12-24T16:58:45.079Z,8.30
2022-12-24T17:01:13.242Z,6.37
2022-12-24T17:03:41.366Z,6.27
2022-12-24T17:06:09.729Z,7.63
2022-12-24T17:08:38.089Z,9.40
2022-12-24T17:11:07.520Z,5.27
2022-12-24T17:13:35.461Z,10.67
2022-12-24T17:16:03.959Z,6.40
2022-12-24T17:18:31.990Z,4.10
2022-12-24T17:21:01.780Z,4.97
2022-12-24T17:23:30.863Z,2.60
2022-12-24T17:25:59.035Z,2.37
2022-12-24T17:28:30.158Z,4.20
2022-12-24T17:30:58.948Z,2.50
2022-12-24T17:33:27.041Z,2.60
2022-12-24T17:35:55.009Z,2.60
2022-12-24T17:38:22.973Z,2.63
2022-12-24T17:40:50.954Z,2.70
2022-12-24T17:43:18.915Z,2.73
2022-12-24T17:45:48.230Z,3.40
2022-12-24T17:48:16.265Z,2.57
2022-12-24T17:50:44.281Z,2.23
2022-12-24T17:53:12.386Z,3.10
2022-12-24T17:55:41.932Z,2.50
2022-12-24T17:58:10.156Z,3.43
2022-12-24T18:00:38.707Z,3.00
2022-12-24T18:03:08.375Z,2.50
2022-12-24T18:05:36.903Z,1.90
2022-12-24T18:08:05.545Z,1.77
2022-12-24T18:10:33.687Z,2.17
2022-12-24T18:13:02.705Z,2.07
2022-12-24T18:15:34.345Z,2.03
2022-12-24T18:18:03.244Z,2.93
2022-12-24T18:20:37.499Z,2.40
2022-12-24T18:23:09.284Z,2.30
2022-12-24T18:25:37.269Z,2.23
2022-12-24T18:28:05.669Z,2.07
2022-12-24T18:30:33.754Z,4.13
2022-12-24T18:33:02.207Z,2.23
2022-12-24T18:35:30.228Z,2.63
2022-12-24T18:37:59.601Z,1.77
2022-12-24T18:40:27.700Z,2.10
2022-12-24T18:42:55.753Z,1.70
2022-12-24T18:45:23.816Z,3.17
2022-12-24T18:47:51.818Z,9.47
2022-12-24T18:50:19.862Z,2.13
2022-12-24T18:52:50.960Z,1.90
2022-12-24T18:55:21.795Z,2.30
2022-12-24T18:57:49.860Z,5.70
2022-12-24T19:00:19.065Z,4.43
2022-12-24T19:02:47.291Z,3.37
2022-12-24T19:05:15.784Z,3.57
2022-12-24T19:07:43.882Z,2.27
2022-12-24T19:10:12.926Z,2.43
2022-12-24T19:12:42.336Z,2.13
2022-12-24T19:15:11.441Z,3.57
2022-12-24T19:17:39.606Z,3.90
2022-12-24T19:20:09.516Z,2.70
2022-12-24T19:22:37.600Z,2.70
2022-12-24T19:25:06.774Z,2.30
2022-12-24T19:27:34.829Z,4.67
2022-12-24T19:30:05.479Z,4.73
2022-12-24T19:32:33.515Z,3.10
2022-12-24T19:35:02.543Z,4.23
2022-12-24T19:37:31.417Z,2.67
2022-12-24T19:39:59.484Z,1.73
2022-12-24T19:42:27.521Z,2.17
2022-12-24T19:44:58.843Z,2.80
2022-12-24T19:47:28.729Z,1.73
2022-12-24T19:49:56.749Z,2.50
2022-12-24T19:52:24.710Z,3.17
2022-12-24T19:54:52.776Z,2.90
2022-12-24T19:57:20.987Z,2.53
2022-12-24T19:59:49.054Z,2.20
2022-12-24T20:02:17.335Z,5.87
2022-12-24T20:04:48.988Z,3.20
2022-12-24T20:07:17.026Z,2.80
2022-12-24T20:09:47.128Z,3.73
2022-12-24T20:12:15.997Z,2.57
2022-12-24T20:14:45.424Z,2.27
2022-12-24T20:17:14.772Z,2.63
2022-12-24T20:19:42.814Z,2.50
2022-12-24T20:22:12.211Z,2.33
2022-12-24T20:24:40.327Z,1.80
2022-12-24T20:27:08.285Z,1.80
2022-12-24T20:29:36.314Z,2.00
2022-12-24T20:32:04.549Z,2.67
2022-12-24T20:34:32.704Z,2.50
2022-12-24T20:37:00.755Z,2.30
2022-12-24T20:39:30.124Z,1.83
2022-12-24T20:41:58.248Z,2.10
2022-12-24T20:44:26.275Z,1.70
2022-12-24T20:46:54.655Z,1.83
2022-12-24T20:49:22.802Z,1.50
2022-12-24T20:51:51.268Z,2.80
2022-12-24T20:54:21.067Z,3.37
2022-12-24T20:56:57.612Z,1.90
2022-12-24T20:59:27.350Z,1.57
2022-12-24T21:01:55.637Z,1.87
2022-12-24T21:04:24.067Z,2.70
2022-12-24T21:06:54.450Z,1.70
2022-12-24T21:09:24.873Z,2.00
2022-12-24T21:12:12.422Z,2.17
2022-12-24T21:14:42.585Z,1.43
2022-12-24T21:17:15.679Z,2.53
2022-12-24T21:19:46.329Z,1.90
2022-12-24T21:22:14.474Z,2.53
2022-12-24T21:24:42.522Z,2.10
2022-12-24T21:27:12.319Z,1.83
2022-12-24T21:29:40.372Z,2.57
2022-12-24T21:32:08.525Z,2.77
2022-12-24T21:34:36.795Z,1.97
2022-12-24T21:37:05.023Z,2.47
2022-12-24T21:39:34.593Z,2.17
2022-12-24T21:42:03.018Z,2.83
2022-12-24T21:44:32.381Z,2.40
2022-12-24T21:47:01.542Z,2.43
2022-12-24T21:49:47.318Z,2.40
2022-12-24T21:52:15.871Z,2.23
2022-12-24T21:54:45.461Z,1.50
2022-12-24T21:57:32.926Z,2.30
2022-12-24T22:00:17.716Z,2.33
2022-12-24T22:02:46.427Z,2.10
2022-12-24T22:05:14.806Z,2.10
2022-12-24T22:08:00.567Z,3.53
2022-12-24T22:10:48.508Z,3.50
2022-12-24T22:13:19.470Z,2.03
2022-12-24T22:15:51.075Z,2.10
2022-12-24T22:18:24.185Z,1.90
2022-12-24T22:20:52.714Z,2.13
2022-12-24T22:23:21.063Z,2.27
2022-12-24T22:25:49.210Z,2.70
2022-12-24T22:28:17.337Z,3.70
2022-12-24T22:30:45.481Z,2.40
2022-12-24T22:33:14.839Z,2.70
2022-12-24T22:35:43.299Z,2.60
2022-12-24T22:38:11.725Z,2.47
2022-12-24T22:40:40.642Z,2.73
2022-12-24T22:43:08.737Z,4.00
2022-12-24T22:45:36.717Z,5.40
2022-12-24T22:48:05.199Z,5.23
2022-12-24T22:50:36.168Z,2.70
2022-12-24T22:53:04.379Z,2.50
2022-12-24T22:55:32.572Z,3.27
2022-12-24T22:58:02.686Z,2.27
2022-12-24T23:00:43.400Z,2.43
2022-12-24T23:03:12.841Z,2.37
2022-12-24T23:05:42.696Z,1.80
2022-12-24T23:08:12.201Z,2.33
2022-12-24T23:10:41.339Z,2.20
2022-12-24T23:13:26.859Z,2.67
2022-12-24T23:15:55.214Z,2.10
2022-12-24T23:18:23.320Z,1.77
2022-12-24T23:20:52.759Z,2.53
2022-12-24T23:23:20.825Z,2.27
2022-12-24T23:25:48.959Z,2.80
2022-12-24T23:28:17.153Z,2.67
2022-12-24T23:30:45.182Z,4.00
2022-12-24T23:33:13.199Z,2.10
2022-12-24T23:35:41.418Z,2.80
2022-12-24T23:38:10.786Z,2.70
2022-12-24T23:40:38.904Z,2.17
2022-12-24T23:43:07.561Z,2.50
2022-12-24T23:45:35.697Z,2.10
2022-12-24T23:48:03.865Z,1.83
2022-12-24T23:50:31.998Z,2.53
2022-12-24T23:53:00.147Z,2.70
2022-12-24T23:55:29.551Z,2.20
2022-12-24T23:57:57.527Z,2.27
